createdAt,value
2022-08-07T00:01:43.669Z,69.40
2022-08-07T00:04:05.199Z,69.50
2022-08-07T00:06:33.855Z,70.00
2022-08-07T00:09:16.897Z,70.40
2022-08-07T00:11:56.106Z,71.40
2022-08-07T00:14:31.299Z,71.00
2022-08-07T00:17:02.726Z,70.70
2022-08-07T00:20:00.277Z,70.30
2022-08-07T00:22:24.458Z,71.10
2022-08-07T00:25:11.109Z,71.00
2022-08-07T00:27:53.708Z,71.20
2022-08-07T00:30:27.242Z,72.00
2022-08-07T00:32:59.086Z,72.00
2022-08-07T00:35:27.206Z,72.20
2022-08-07T00:37:58.112Z,72.20
2022-08-07T00:40:40.023Z,72.80
2022-08-07T00:43:58.710Z,73.00
2022-08-07T00:45:59.686Z,73.10
2022-08-07T00:48:31.871Z,73.50
2022-08-07T00:50:59.679Z,74.10
2022-08-07T00:53:26.987Z,74.10
2022-08-07T00:56:13.711Z,74.00
2022-08-07T00:58:46.753Z,74.20
2022-08-07T01:01:15.860Z,75.10
2022-08-07T01:03:55.895Z,75.30
2022-08-07T01:06:25.251Z,75.30
2022-08-07T01:08:53.958Z,75.90
2022-08-07T01:12:27.364Z,76.00
2022-08-07T01:14:09.713Z,75.80
2022-08-07T01:16:37.264Z,75.70
2022-08-07T01:19:10.908Z,76.00
2022-08-07T01:21:46.950Z,76.10
2022-08-07T01:24:21.223Z,75.80
2022-08-07T01:26:52.153Z,76.00
2022-08-07T01:29:20.432Z,76.30
2022-08-07T01:31:49.761Z,76.80
2022-08-07T01:34:20.353Z,76.90
2022-08-07T01:36:58.276Z,76.80
2022-08-07T01:39:40.992Z,76.80
2022-08-07T01:42:39.905Z,76.80
2022-08-07T01:45:02.226Z,77.20
2022-08-07T01:48:18.254Z,77.40
2022-08-07T01:50:17.099Z,78.00
2022-08-07T01:52:58.691Z,78.30
2022-08-07T01:55:34.175Z,78.30
2022-08-07T01:58:27.084Z,78.30
2022-08-07T02:00:58.082Z,78.90
2022-08-07T02:03:50.221Z,79.10
2022-08-07T02:06:31.968Z,79.30
2022-08-07T02:09:03.566Z,79.40
2022-08-07T02:12:03.901Z,79.20
2022-08-07T02:14:36.086Z,80.00
2022-08-07T02:17:04.129Z,80.70
2022-08-07T02:20:06.802Z,80.60
2022-08-07T02:22:25.891Z,80.90
2022-08-07T02:24:55.955Z,80.30
2022-08-07T02:27:25.030Z,80.30
2022-08-07T02:29:54.263Z,81.10
2022-08-07T02:32:27.107Z,80.40
2022-08-07T02:34:58.836Z,80.00
2022-08-07T02:37:28.635Z,80.90
2022-08-07T02:40:29.607Z,80.10
2022-08-07T02:42:55.768Z,80.30
2022-08-07T02:45:58.956Z,80.70
2022-08-07T02:48:15.519Z,80.90
2022-08-07T02:50:44.838Z,80.90
2022-08-07T02:53:17.879Z,80.80
2022-08-07T02:56:03.250Z,81.10
2022-08-07T02:58:33.772Z,81.10
2022-08-07T03:01:03.131Z,81.20
2022-08-07T03:03:49.489Z,81.10
2022-08-07T03:06:26.300Z,81.10
2022-08-07T03:09:07.431Z,81.90
2022-08-07T03:11:52.151Z,82.10
2022-08-07T03:14:25.217Z,81.90
2022-08-07T03:16:52.457Z,82.10
2022-08-07T03:19:19.952Z,81.90
2022-08-07T03:21:50.762Z,82.00
2022-08-07T03:24:26.013Z,82.40
2022-08-07T03:26:59.527Z,82.90
2022-08-07T03:29:50.771Z,83.40
2022-08-07T03:32:24.641Z,83.20
2022-08-07T03:35:16.583Z,83.10
2022-08-07T03:37:46.214Z,83.40
2022-08-07T03:40:20.769Z,83.60
2022-08-07T03:42:52.806Z,84.00
2022-08-07T03:45:30.598Z,84.50
2022-08-07T03:47:58.887Z,85.70
2022-08-07T03:50:28.635Z,84.90
2022-08-07T03:52:57.881Z,85.00
2022-08-07T03:55:24.670Z,84.90
2022-08-07T03:59:04.904Z,84.90
2022-08-07T04:01:00.114Z,84.80
2022-08-07T04:03:27.639Z,84.80
2022-08-07T04:06:10.241Z,84.90
2022-08-07T04:08:57.782Z,85.20
2022-08-07T04:12:24.889Z,85.10
2022-08-07T04:14:37.473Z,85.00
2022-08-07T04:16:59.249Z,85.10
2022-08-07T04:19:34.092Z,85.00
2022-08-07T04:22:18.087Z,84.90
2022-08-07T04:24:46.285Z,84.70
2022-08-07T04:27:20.184Z,84.80
2022-08-07T04:30:02.083Z,84.70
2022-08-07T04:32:34.692Z,84.90
2022-08-07T04:35:07.174Z,84.90
2022-08-07T04:37:40.531Z,84.70
2022-08-07T04:40:26.691Z,84.70
2022-08-07T04:43:02.159Z,85.00
2022-08-07T04:45:44.829Z,84.80
2022-08-07T04:48:51.106Z,84.50
2022-08-07T04:51:27.589Z,84.50
2022-08-07T04:54:10.090Z,84.40
2022-08-07T04:58:16.265Z,84.50
2022-08-07T05:00:11.764Z,84.40
2022-08-07T05:03:31.270Z,84.30
2022-08-07T05:06:19.307Z,84.10
2022-08-07T05:09:06.259Z,83.60
2022-08-07T05:11:58.553Z,83.70
2022-08-07T05:14:56.532Z,83.90
2022-08-07T05:17:51.671Z,84.40
2022-08-07T05:20:16.803Z,84.40
2022-08-07T05:22:46.603Z,83.60
2022-08-07T05:25:25.744Z,82.00
2022-08-07T05:28:20.456Z,81.40
2022-08-07T05:30:52.163Z,81.30
2022-08-07T05:33:21.295Z,79.70
2022-08-07T05:35:51.743Z,79.80
2022-08-07T05:39:00.607Z,74.70
2022-08-07T05:41:14.035Z,76.10
2022-08-07T05:44:01.482Z,75.50
2022-08-07T05:46:36.267Z,70.40
2022-08-07T05:49:11.824Z,68.70
2022-08-07T05:51:39.960Z,72.20
2022-08-07T05:54:09.508Z,71.90
2022-08-07T05:56:56.355Z,71.40
2022-08-07T05:59:25.093Z,70.20
2022-08-07T06:01:56.856Z,68.70
2022-08-07T06:04:29.990Z,67.60
2022-08-07T06:07:03.891Z,66.10
2022-08-07T06:10:03.702Z,65.20
2022-08-07T06:12:21.060Z,64.60
2022-08-07T06:14:49.572Z,61.70
2022-08-07T06:17:17.934Z,61.10
2022-08-07T06:19:52.143Z,58.80
2022-08-07T06:22:38.898Z,59.20
2022-08-07T06:25:10.061Z,59.40
2022-08-07T06:27:59.833Z,57.80
2022-08-07T06:30:32.478Z,55.90
2022-08-07T06:33:05.408Z,55.10
2022-08-07T06:35:45.764Z,52.40
2022-08-07T06:38:23.531Z,53.10
2022-08-07T06:40:57.742Z,53.40
2022-08-07T06:43:26.669Z,50.90
2022-08-07T06:45:57.366Z,50.70
2022-08-07T06:48:27.655Z,50.80
2022-08-07T06:50:58.844Z,49.20
2022-08-07T06:55:27.920Z,49.90
2022-08-07T06:56:48.637Z,51.40
2022-08-07T07:00:11.917Z,48.70
2022-08-07T07:02:48.895Z,45.80
2022-08-07T07:05:07.394Z,43.20
2022-08-07T07:08:00.216Z,43.90
2022-08-07T07:10:35.770Z,40.50
2022-08-07T07:13:55.582Z,39.40
2022-08-07T07:16:14.430Z,39.70
2022-08-07T07:18:51.941Z,38.30
2022-08-07T07:21:27.252Z,36.30
2022-08-07T07:24:12.945Z,35.20
2022-08-07T07:26:41.013Z,34.60
2022-08-07T07:29:56.517Z,35.60
2022-08-07T07:32:14.253Z,32.30
2022-08-07T07:34:48.651Z,33.60
2022-08-07T07:37:44.219Z,32.00
2022-08-07T07:40:10.227Z,30.90
2022-08-07T07:42:47.083Z,28.90
2022-08-07T07:45:22.728Z,26.30
2022-08-07T07:48:11.190Z,26.30
2022-08-07T07:50:40.239Z,22.90
2022-08-07T07:53:20.561Z,25.90
2022-08-07T07:55:54.710Z,23.80
2022-08-07T07:58:30.762Z,22.90
2022-08-07T08:02:03.205Z,23.50
2022-08-07T08:04:09.721Z,24.10
2022-08-07T08:06:39.489Z,22.10
2022-08-07T08:09:08.472Z,22.30
2022-08-07T08:11:59.677Z,22.60
2022-08-07T08:14:26.550Z,21.30
2022-08-07T08:16:54.843Z,21.30
2022-08-07T08:20:17.470Z,19.40
2022-08-07T08:22:33.883Z,19.40
2022-08-07T08:25:42.609Z,20.20
2022-08-07T08:28:16.982Z,19.60
2022-08-07T08:30:58.304Z,16.50
2022-08-07T08:33:33.066Z,17.00
2022-08-07T08:36:01.590Z,16.90
2022-08-07T08:38:40.458Z,17.20
2022-08-07T08:41:22.986Z,18.10
2022-08-07T08:44:04.153Z,16.70
2022-08-07T08:46:50.059Z,17.00
2022-08-07T08:49:33.497Z,16.10
2022-08-07T08:52:14.191Z,16.30
2022-08-07T08:55:55.581Z,15.10
2022-08-07T08:58:34.877Z,14.10
2022-08-07T09:01:29.865Z,15.10
2022-08-07T09:04:45.820Z,15.90
2022-08-07T09:07:46.336Z,15.60
2022-08-07T09:10:44.911Z,14.80
2022-08-07T09:13:38.286Z,13.60
2022-08-07T09:16:30.150Z,12.40
2022-08-07T09:19:53.006Z,13.70
2022-08-07T09:24:33.530Z,13.40
2022-08-07T09:26:23.735Z,11.90
2022-08-07T09:30:04.953Z,12.30
2022-08-07T09:32:18.504Z,9.40
2022-08-07T09:34:54.081Z,11.30
2022-08-07T09:37:33.628Z,8.90
2022-08-07T09:40:37.777Z,9.70
2022-08-07T09:44:05.792Z,8.40
2022-08-07T09:47:51.424Z,8.50
2022-08-07T09:50:18.827Z,11.60
2022-08-07T09:52:54.492Z,10.70
2022-08-07T09:55:29.654Z,10.50
2022-08-07T09:58:34.324Z,9.50
2022-08-07T10:01:53.333Z,10.20
2022-08-07T10:04:28.157Z,10.40
2022-08-07T10:07:52.442Z,12.50
2022-08-07T10:10:24.878Z,11.10
2022-08-07T10:14:01.336Z,10.70
2022-08-07T10:16:52.338Z,9.30
2022-08-07T10:19:41.327Z,10.00
2022-08-07T10:22:33.595Z,11.10
2022-08-07T10:25:24.909Z,10.20
2022-08-07T10:28:33.514Z,9.50
2022-08-07T10:31:51.500Z,8.90
2022-08-07T10:34:42.698Z,7.50
2022-08-07T10:37:48.576Z,8.80
2022-08-07T10:40:42.864Z,9.30
2022-08-07T10:43:34.796Z,9.80
2022-08-07T10:46:09.426Z,8.00
2022-08-07T10:48:48.815Z,8.00
2022-08-07T10:51:57.599Z,7.80
2022-08-07T10:54:53.432Z,6.40
2022-08-07T10:57:37.113Z,8.90
2022-08-07T11:00:36.881Z,6.40
2022-08-07T11:03:03.224Z,8.00
2022-08-07T11:06:01.123Z,6.70
2022-08-07T11:08:45.958Z,7.30
2022-08-07T11:11:16.316Z,8.60
2022-08-07T11:14:57.381Z,8.30
2022-08-07T11:17:01.878Z,6.30
2022-08-07T11:19:47.940Z,7.50
2022-08-07T11:22:32.250Z,7.40
2022-08-07T11:25:19.831Z,9.00
2022-08-07T11:28:15.304Z,6.60
2022-08-07T11:31:02.499Z,6.30
2022-08-07T11:34:00.835Z,7.90
2022-08-07T11:37:00.425Z,8.50
2022-08-07T11:39:59.741Z,7.30
2022-08-07T11:42:58.187Z,6.90
2022-08-07T11:45:35.341Z,9.50
2022-08-07T11:48:29.237Z,8.70
2022-08-07T11:51:41.717Z,8.30
2022-08-07T11:54:54.938Z,9.50
2022-08-07T11:58:00.134Z,9.40
2022-08-07T12:00:30.178Z,7.50
2022-08-07T12:03:42.060Z,8.10
2022-08-07T12:06:37.604Z,9.70
2022-08-07T12:09:39.482Z,9.70
2022-08-07T12:12:12.289Z,8.40
2022-08-07T12:15:01.319Z,9.50
2022-08-07T12:17:39.950Z,9.50
2022-08-07T12:20:34.790Z,9.30
2022-08-07T12:24:07.503Z,8.60
2022-08-07T12:26:46.960Z,9.40
2022-08-07T12:29:40.355Z,8.70
2022-08-07T12:32:14.794Z,9.20
2022-08-07T12:34:49.554Z,8.90
2022-08-07T12:37:23.450Z,9.90
2022-08-07T12:39:58.524Z,7.30
2022-08-07T12:42:28.613Z,7.90
2022-08-07T12:45:05.847Z,7.50
2022-08-07T12:47:50.155Z,7.10
2022-08-07T12:50:48.773Z,7.20
2022-08-07T12:54:03.272Z,8.00
2022-08-07T12:56:39.463Z,7.60
2022-08-07T12:59:08.593Z,7.70
2022-08-07T13:02:09.650Z,7.70
2022-08-07T13:05:01.716Z,6.60
2022-08-07T13:08:13.724Z,6.50
2022-08-07T13:11:22.372Z,7.80
2022-08-07T13:14:29.191Z,7.30
2022-08-07T13:17:22.267Z,6.70
2022-08-07T13:20:15.339Z,6.50
2022-08-07T13:24:01.981Z,5.90
2022-08-07T13:26:15.782Z,7.30
2022-08-07T13:29:06.292Z,9.40
2022-08-07T13:32:00.194Z,8.60
2022-08-07T13:34:57.660Z,7.30
2022-08-07T13:37:42.867Z,5.70
2022-08-07T13:40:43.172Z,6.90
2022-08-07T13:43:15.416Z,6.20
2022-08-07T13:46:12.320Z,7.80
2022-08-07T13:48:38.935Z,6.50
2022-08-07T13:51:27.944Z,7.60
2022-08-07T13:54:01.972Z,6.50
2022-08-07T13:56:35.831Z,6.20
2022-08-07T13:59:17.311Z,6.30
2022-08-07T14:02:04.149Z,6.70
2022-08-07T14:04:55.113Z,6.70
2022-08-07T14:07:30.631Z,4.10
2022-08-07T14:10:02.035Z,7.00
2022-08-07T14:12:54.595Z,7.50
2022-08-07T14:15:39.362Z,6.00
2022-08-07T14:18:23.812Z,5.80
2022-08-07T14:21:08.399Z,6.20
2022-08-07T14:24:00.591Z,7.20
2022-08-07T14:26:51.092Z,5.60
2022-08-07T14:30:05.083Z,5.60
2022-08-07T14:32:15.962Z,5.80
2022-08-07T14:34:46.670Z,7.20
2022-08-07T14:37:16.850Z,7.10
2022-08-07T14:40:16.615Z,7.00
2022-08-07T14:42:35.535Z,6.60
2022-08-07T14:45:46.327Z,6.00
2022-08-07T14:48:19.868Z,7.70
2022-08-07T14:50:53.695Z,6.90
2022-08-07T14:54:08.938Z,7.00
2022-08-07T14:56:13.220Z,6.40
2022-08-07T14:58:44.956Z,6.40
2022-08-07T15:04:07.172Z,6.10
2022-08-07T15:06:38.021Z,5.40
2022-08-07T15:09:58.256Z,6.00
2022-08-07T15:12:10.277Z,6.00
2022-08-07T15:15:07.790Z,6.60
2022-08-07T15:17:56.048Z,5.60
2022-08-07T15:25:02.462Z,5.00
2022-08-07T15:26:20.650Z,4.60
2022-08-07T15:28:57.667Z,6.50
2022-08-07T15:34:17.204Z,6.50
2022-08-07T15:39:56.627Z,5.20
2022-08-07T15:42:47.748Z,5.00
2022-08-07T15:45:20.537Z,5.30
2022-08-07T15:48:02.973Z,5.10
2022-08-07T15:50:37.681Z,4.90
2022-08-07T15:53:52.770Z,5.60
2022-08-07T15:56:24.547Z,6.70
2022-08-07T15:58:54.973Z,6.80
2022-08-07T16:01:39.161Z,7.50
2022-08-07T16:04:15.084Z,5.60
2022-08-07T16:06:52.448Z,6.40
2022-08-07T16:09:41.034Z,7.00
2022-08-07T16:12:31.378Z,6.20
2022-08-07T16:15:57.241Z,5.10
2022-08-07T16:18:49.411Z,5.30
2022-08-07T16:21:56.960Z,6.00
2022-08-07T16:24:35.055Z,7.30
2022-08-07T16:27:17.992Z,7.20
2022-08-07T16:30:11.619Z,7.30
2022-08-07T16:32:57.646Z,5.90
2022-08-07T16:35:56.636Z,6.10
2022-08-07T16:39:16.582Z,7.70
2022-08-07T16:42:03.871Z,5.90
2022-08-07T16:45:15.353Z,6.10
2022-08-07T16:48:09.015Z,7.20
2022-08-07T16:51:21.682Z,7.10
2022-08-07T16:54:09.116Z,6.60
2022-08-07T16:56:55.949Z,7.30
2022-08-07T16:59:45.995Z,7.90
2022-08-07T17:02:53.590Z,6.70
2022-08-07T17:06:19.275Z,7.40
2022-08-07T17:09:15.756Z,7.40
2022-08-07T17:12:04.476Z,7.50
2022-08-07T17:15:18.234Z,7.30
2022-08-07T17:18:02.411Z,8.10
2022-08-07T17:20:37.552Z,7.90
2022-08-07T17:23:22.825Z,9.00
2022-08-07T17:26:01.707Z,9.70
2022-08-07T17:28:55.441Z,8.90
2022-08-07T17:31:44.322Z,8.90
2022-08-07T17:34:35.082Z,9.50
2022-08-07T17:38:06.243Z,9.50
2022-08-07T17:40:30.679Z,8.50
2022-08-07T17:43:15.041Z,9.30
2022-08-07T17:45:58.035Z,9.90
2022-08-07T17:48:33.332Z,10.00
2022-08-07T17:51:08.167Z,10.00
2022-08-07T17:53:59.934Z,9.50
2022-08-07T17:56:32.955Z,10.90
2022-08-07T17:59:09.051Z,10.50
2022-08-07T18:02:06.922Z,10.50
2022-08-07T18:05:02.268Z,10.10
2022-08-07T18:08:14.529Z,9.90
2022-08-07T18:12:16.256Z,10.80
2022-08-07T18:14:10.166Z,11.80
2022-08-07T18:16:59.008Z,11.10
2022-08-07T18:21:03.386Z,11.90
2022-08-07T18:22:40.089Z,11.90
2022-08-07T18:25:23.750Z,12.60
2022-08-07T18:28:34.283Z,13.00
2022-08-07T18:31:12.639Z,13.30
2022-08-07T18:34:06.420Z,13.50
2022-08-07T18:37:12.465Z,13.30
2022-08-07T18:40:08.172Z,13.10
2022-08-07T18:42:51.992Z,13.80
2022-08-07T18:45:43.376Z,14.40
2022-08-07T18:50:05.310Z,14.60
2022-08-07T18:52:33.596Z,14.60
2022-08-07T18:54:27.671Z,15.10
2022-08-07T18:57:30.413Z,14.70
2022-08-07T19:00:32.545Z,15.40
2022-08-07T19:03:17.120Z,16.10
2022-08-07T19:06:11.774Z,16.70
2022-08-07T19:08:58.844Z,17.30
2022-08-07T19:12:04.680Z,17.50
2022-08-07T19:14:51.958Z,18.10
2022-08-07T19:18:01.700Z,18.40
2022-08-07T19:20:28.838Z,18.50
2022-08-07T19:23:58.767Z,19.20
2022-08-07T19:26:23.394Z,19.60
2022-08-07T19:31:00.909Z,19.60
2022-08-07T19:32:18.654Z,20.00
2022-08-07T19:34:55.186Z,20.10
2022-08-07T19:37:23.309Z,20.70
2022-08-07T19:40:02.510Z,21.30
2022-08-07T19:42:40.557Z,21.70
2022-08-07T19:46:08.026Z,22.00
2022-08-07T19:48:06.564Z,22.80
2022-08-07T19:50:53.091Z,23.70
2022-08-07T19:54:32.449Z,23.70
2022-08-07T19:57:51.631Z,24.70
2022-08-07T19:59:00.603Z,25.10
2022-08-07T20:01:57.144Z,26.00
2022-08-07T20:04:30.839Z,26.60
2022-08-07T20:06:59.089Z,27.30
2022-08-07T20:10:34.226Z,28.10
2022-08-07T20:12:31.715Z,28.80
2022-08-07T20:15:03.698Z,28.70
2022-08-07T20:17:33.529Z,29.60
2022-08-07T20:20:07.579Z,30.30
2022-08-07T20:22:41.307Z,30.30
2022-08-07T20:25:12.904Z,30.30
2022-08-07T20:27:57.869Z,30.30
2022-08-07T20:30:34.441Z,29.70
2022-08-07T20:33:04.759Z,30.10
2022-08-07T20:35:51.710Z,29.90
2022-08-07T20:38:29.623Z,29.90
2022-08-07T20:41:03.658Z,29.60
2022-08-07T20:43:33.837Z,29.70
2022-08-07T20:46:24.387Z,30.60
2022-08-07T20:49:00.743Z,30.20
2022-08-07T20:51:40.709Z,30.40
2022-08-07T20:54:30.023Z,30.40
2022-08-07T20:57:04.693Z,31.30
2022-08-07T21:00:07.974Z,31.80
2022-08-07T21:02:41.918Z,32.90
2022-08-07T21:05:25.740Z,32.70
2022-08-07T21:08:16.443Z,33.00
2022-08-07T21:10:49.572Z,33.40
2022-08-07T21:13:24.610Z,33.90
2022-08-07T21:16:09.112Z,34.00
2022-08-07T21:18:40.541Z,35.30
2022-08-07T21:21:09.233Z,35.10
2022-08-07T21:24:10.055Z,36.00
2022-08-07T21:26:48.363Z,35.20
2022-08-07T21:29:30.772Z,35.70
2022-08-07T21:32:47.798Z,36.20
2022-08-07T21:35:01.169Z,37.50
2022-08-07T21:37:57.337Z,37.80
2022-08-07T21:40:38.178Z,39.40
2022-08-07T21:43:10.917Z,39.40
2022-08-07T21:46:08.492Z,39.70
2022-08-07T21:48:56.420Z,40.70
2022-08-07T21:51:51.695Z,40.70
2022-08-07T21:54:34.188Z,40.40
2022-08-07T21:57:16.122Z,40.60
2022-08-07T22:00:28.442Z,41.30
2022-08-07T22:03:31.482Z,41.70
2022-08-07T22:06:30.162Z,42.40
2022-08-07T22:09:07.812Z,42.00
2022-08-07T22:12:05.223Z,42.40
2022-08-07T22:14:36.255Z,42.50
2022-08-07T22:17:04.987Z,42.70
2022-08-07T22:20:23.662Z,44.20
2022-08-07T22:22:57.245Z,44.40
2022-08-07T22:25:38.847Z,44.40
2022-08-07T22:28:33.447Z,44.80
2022-08-07T22:31:45.269Z,46.10
2022-08-07T22:34:12.887Z,45.70
2022-08-07T22:37:02.371Z,45.50
2022-08-07T22:39:58.904Z,45.90
2022-08-07T22:42:54.052Z,45.90
2022-08-07T22:46:04.109Z,45.90
2022-08-07T22:48:56.309Z,46.10
2022-08-07T22:51:22.245Z,46.60
2022-08-07T22:54:24.715Z,46.80
2022-08-07T22:56:57.426Z,47.00
2022-08-07T22:59:58.059Z,47.30
2022-08-07T23:02:39.193Z,47.70
2022-08-07T23:06:09.345Z,48.10
2022-08-07T23:08:38.123Z,48.40
2022-08-07T23:11:44.239Z,48.80
2022-08-07T23:14:24.863Z,49.50
2022-08-07T23:17:30.212Z,50.40
2022-08-07T23:20:40.695Z,50.60
2022-08-07T23:24:05.935Z,50.50
2022-08-07T23:26:30.388Z,51.80
2022-08-07T23:29:16.540Z,51.90
2022-08-07T23:34:23.082Z,52.40
2022-08-07T23:35:19.480Z,52.50
2022-08-07T23:38:19.021Z,53.50
2022-08-07T23:41:04.243Z,54.10
2022-08-07T23:44:00.710Z,54.80
2022-08-07T23:46:33.873Z,54.90
2022-08-07T23:49:50.546Z,55.20
2022-08-07T23:53:06.608Z,55.80
2022-08-07T23:55:52.961Z,56.50
2022-08-07T23:58:21.457Z,57.20
